Main page
METAR-TAF:

METAR-TAF

Airports :

Emmen, Switzerland

Militärflugplatz Emmen

latitude: 47-05-32N, longitude: 8-18-16E, elevation: 426 m

Current weather observation

The report was made 30 minutes ago, at 23:50 UTC
Calm wind
Temperature 3°C
Humidity 93%
Pressure 1025 hPa
Visibility: 7000 m
Overcast at a height of 5000 ft

METAR: LSME 192350Z AUTO 00000KT 7000NDV OVC050 03/02 Q1025 RMK

Time: 01:20 (00:20 UTC)


TAF: missing

Weather observations and forecasts of more than 4000 airports (METAR and TAF reports).

The available stations are represented by yellow and red dots on the map.

Hover mouse over dot to see the name of the station.

Then click to see weather observations and forecasts.

To change the map : click on the green buttons with a black cross to zoom in, on the green button with a dash to zoom out, or on the green arrows for adjacent maps.


METAR-TAF: